San Martin, California
Current Conditions -  °F | °C
As of 11:35 PM on Sunday 21 Dec 2014 (Local Time) from KE16 Reporting Station
Overcast Overcast  
Wind Chill: 59°   Ceiling: 800
Heat Index: 59°   Visibility: 10mi
Dew Point: 59°   Wind: 8mph
Humidity: 100%   Direction: 320°NW
Pressure: 30.3"   Gusts: NA
Location:  37.08°N, 121.61°W
Report Text: KE16 220735Z AUTO 32007KT 10SM OVC008 15/15 A3030 RMK AO2 PWINO PNO
Loading
Personal Weather Stations






























Interactive Weather Map New forecast layout! Learn more

10-Day Weather Forecast

Advertisements
Track Severe Weather on mobile